sensor_id;sensor_type;location;lat;lon;timestamp;P1;durP1;ratioP1;P2;durP2;ratioP2
74614;SDS011;63121;51.458;-0.110;2023-04-01T00:01:53;16.05;;;5.75;;
74614;SDS011;63121;51.458;-0.110;2023-04-01T00:04:19;18.67;;;6.20;;
74614;SDS011;63121;51.458;-0.110;2023-04-01T00:06:45;14.30;;;5.35;;
74614;SDS011;63121;51.458;-0.110;2023-04-01T00:09:12;17.95;;;6.13;;
74614;SDS011;63121;51.458;-0.110;2023-04-01T00:11:38;10.77;;;4.15;;
74614;SDS011;63121;51.458;-0.110;2023-04-01T00:14:03;13.48;;;5.00;;
74614;SDS011;63121;51.458;-0.110;2023-04-01T00:16:29;15.52;;;5.63;;
74614;SDS011;63121;51.458;-0.110;2023-04-01T00:18:55;16.40;;;6.05;;
74614;SDS011;63121;51.458;-0.110;2023-04-01T00:21:20;16.80;;;6.22;;
74614;SDS011;63121;51.458;-0.110;2023-04-01T00:23:47;14.02;;;4.90;;
74614;SDS011;63121;51.458;-0.110;2023-04-01T00:26:13;13.18;;;4.80;;
74614;SDS011;63121;51.458;-0.110;2023-04-01T00:28:41;17.20;;;5.28;;
74614;SDS011;63121;51.458;-0.110;2023-04-01T00:33:32;14.57;;;5.38;;
74614;SDS011;63121;51.458;-0.110;2023-04-01T00:36:14;11.57;;;4.38;;
74614;SDS011;63121;51.458;-0.110;2023-04-01T00:38:42;14.00;;;5.50;;
74614;SDS011;63121;51.458;-0.110;2023-04-01T00:41:08;13.30;;;5.15;;
74614;SDS011;63121;51.458;-0.110;2023-04-01T00:43:39;12.20;;;5.07;;
74614;SDS011;63121;51.458;-0.110;2023-04-01T00:46:05;12.13;;;5.22;;
74614;SDS011;63121;51.458;-0.110;2023-04-01T00:48:33;11.05;;;4.35;;
74614;SDS011;63121;51.458;-0.110;2023-04-01T00:51:02;13.27;;;5.35;;
74614;SDS011;63121;51.458;-0.110;2023-04-01T00:53:31;10.73;;;3.83;;
74614;SDS011;63121;51.458;-0.110;2023-04-01T00:56:04;14.00;;;5.68;;
74614;SDS011;63121;51.458;-0.110;2023-04-01T00:58:35;13.40;;;5.10;;
74614;SDS011;63121;51.458;-0.110;2023-04-01T01:01:04;13.02;;;5.32;;
74614;SDS011;63121;51.458;-0.110;2023-04-01T01:03:31;13.90;;;5.50;;
74614;SDS011;63121;51.458;-0.110;2023-04-01T01:09:03;14.73;;;5.97;;
74614;SDS011;63121;51.458;-0.110;2023-04-01T01:14:28;14.07;;;5.35;;
74614;SDS011;63121;51.458;-0.110;2023-04-01T01:17:02;13.25;;;5.20;;
74614;SDS011;63121;51.458;-0.110;2023-04-01T01:28:26;12.02;;;4.90;;
74614;SDS011;63121;51.458;-0.110;2023-04-01T01:36:49;7.82;;;2.97;;
74614;SDS011;63121;51.458;-0.110;2023-04-01T01:39:21;7.95;;;2.80;;
74614;SDS011;63121;51.458;-0.110;2023-04-01T01:41:52;8.07;;;2.45;;
74614;SDS011;63121;51.458;-0.110;2023-04-01T01:44:20;10.07;;;3.03;;
74614;SDS011;63121;51.458;-0.110;2023-04-01T01:46:46;7.80;;;2.95;;
74614;SDS011;63121;51.458;-0.110;2023-04-01T01:49:13;8.85;;;3.00;;
74614;SDS011;63121;51.458;-0.110;2023-04-01T01:51:42;8.15;;;2.78;;
74614;SDS011;63121;51.458;-0.110;2023-04-01T01:54:11;10.25;;;2.50;;
74614;SDS011;63121;51.458;-0.110;2023-04-01T01:56:38;8.23;;;2.55;;
74614;SDS011;63121;51.458;-0.110;2023-04-01T01:59:05;7.00;;;1.98;;
74614;SDS011;63121;51.458;-0.110;2023-04-01T02:01:37;8.45;;;2.75;;
74614;SDS011;63121;51.458;-0.110;2023-04-01T02:04:05;6.97;;;2.40;;
74614;SDS011;63121;51.458;-0.110;2023-04-01T02:06:34;9.20;;;2.92;;
74614;SDS011;63121;51.458;-0.110;2023-04-01T02:09:04;7.45;;;2.85;;
74614;SDS011;63121;51.458;-0.110;2023-04-01T02:11:49;8.63;;;2.80;;
74614;SDS011;63121;51.458;-0.110;2023-04-01T02:14:21;7.95;;;2.70;;
74614;SDS011;63121;51.458;-0.110;2023-04-01T02:19:16;9.88;;;2.63;;
74614;SDS011;63121;51.458;-0.110;2023-04-01T02:21:47;8.07;;;2.38;;
74614;SDS011;63121;51.458;-0.110;2023-04-01T02:24:17;8.65;;;2.83;;
74614;SDS011;63121;51.458;-0.110;2023-04-01T02:26:47;9.13;;;3.20;;
74614;SDS011;63121;51.458;-0.110;2023-04-01T02:29:15;8.93;;;2.80;;
74614;SDS011;63121;51.458;-0.110;2023-04-01T02:31:43;6.93;;;2.35;;
74614;SDS011;63121;51.458;-0.110;2023-04-01T02:34:08;8.27;;;2.28;;
74614;SDS011;63121;51.458;-0.110;2023-04-01T02:36:34;7.22;;;2.72;;
74614;SDS011;63121;51.458;-0.110;2023-04-01T02:39:01;7.97;;;2.10;;
74614;SDS011;63121;51.458;-0.110;2023-04-01T02:41:29;6.28;;;2.13;;
74614;SDS011;63121;51.458;-0.110;2023-04-01T02:43:55;6.60;;;2.08;;
74614;SDS011;63121;51.458;-0.110;2023-04-01T02:46:22;5.05;;;1.80;;
74614;SDS011;63121;51.458;-0.110;2023-04-01T02:48:47;3.65;;;1.42;;
74614;SDS011;63121;51.458;-0.110;2023-04-01T02:51:13;6.75;;;2.03;;
74614;SDS011;63121;51.458;-0.110;2023-04-01T02:53:38;6.38;;;2.10;;
74614;SDS011;63121;51.458;-0.110;2023-04-01T02:56:03;6.17;;;2.47;;
74614;SDS011;63121;51.458;-0.110;2023-04-01T02:58:29;5.25;;;1.63;;
74614;SDS011;63121;51.458;-0.110;2023-04-01T03:00:54;6.38;;;1.92;;
74614;SDS011;63121;51.458;-0.110;2023-04-01T03:03:20;4.70;;;1.58;;
74614;SDS011;63121;51.458;-0.110;2023-04-01T03:05:45;5.80;;;1.87;;
74614;SDS011;63121;51.458;-0.110;2023-04-01T03:08:11;6.40;;;2.28;;
74614;SDS011;63121;51.458;-0.110;2023-04-01T03:10:36;9.15;;;2.20;;
74614;SDS011;63121;51.458;-0.110;2023-04-01T03:13:02;7.00;;;2.25;;
74614;SDS011;63121;51.458;-0.110;2023-04-01T03:15:27;4.78;;;1.75;;
74614;SDS011;63121;51.458;-0.110;2023-04-01T03:17:53;4.43;;;1.55;;
74614;SDS011;63121;51.458;-0.110;2023-04-01T03:20:18;4.50;;;1.35;;
74614;SDS011;63121;51.458;-0.110;2023-04-01T03:22:45;5.68;;;1.85;;
74614;SDS011;63121;51.458;-0.110;2023-04-01T03:25:11;4.22;;;1.52;;
74614;SDS011;63121;51.458;-0.110;2023-04-01T03:27:36;5.85;;;1.80;;
74614;SDS011;63121;51.458;-0.110;2023-04-01T03:30:03;4.93;;;1.50;;
74614;SDS011;63121;51.458;-0.110;2023-04-01T03:32:29;5.57;;;1.52;;
74614;SDS011;63121;51.458;-0.110;2023-04-01T03:34:55;4.45;;;1.58;;
74614;SDS011;63121;51.458;-0.110;2023-04-01T03:37:20;4.15;;;1.30;;
74614;SDS011;63121;51.458;-0.110;2023-04-01T03:39:47;4.70;;;1.60;;
74614;SDS011;63121;51.458;-0.110;2023-04-01T03:42:12;5.65;;;2.03;;
74614;SDS011;63121;51.458;-0.110;2023-04-01T03:44:38;4.38;;;1.40;;
74614;SDS011;63121;51.458;-0.110;2023-04-01T03:47:03;5.30;;;1.50;;
74614;SDS011;63121;51.458;-0.110;2023-04-01T03:49:29;4.53;;;1.50;;
74614;SDS011;63121;51.458;-0.110;2023-04-01T03:51:54;5.55;;;1.50;;
74614;SDS011;63121;51.458;-0.110;2023-04-01T03:54:20;4.38;;;1.40;;
74614;SDS011;63121;51.458;-0.110;2023-04-01T03:56:45;3.22;;;1.30;;
74614;SDS011;63121;51.458;-0.110;2023-04-01T03:59:11;6.10;;;2.03;;
74614;SDS011;63121;51.458;-0.110;2023-04-01T04:01:37;6.38;;;1.95;;
74614;SDS011;63121;51.458;-0.110;2023-04-01T04:04:02;4.85;;;1.55;;
74614;SDS011;63121;51.458;-0.110;2023-04-01T04:06:28;4.82;;;1.52;;
74614;SDS011;63121;51.458;-0.110;2023-04-01T04:08:54;4.90;;;1.60;;
74614;SDS011;63121;51.458;-0.110;2023-04-01T04:11:20;5.07;;;1.63;;
74614;SDS011;63121;51.458;-0.110;2023-04-01T04:16:15;5.30;;;1.80;;
74614;SDS011;63121;51.458;-0.110;2023-04-01T04:18:42;4.90;;;1.77;;
74614;SDS011;63121;51.458;-0.110;2023-04-01T04:21:10;5.10;;;1.70;;
74614;SDS011;63121;51.458;-0.110;2023-04-01T04:23:37;5.97;;;1.65;;
74614;SDS011;63121;51.458;-0.110;2023-04-01T04:26:04;5.00;;;1.50;;
74614;SDS011;63121;51.458;-0.110;2023-04-01T04:28:34;4.97;;;1.73;;
74614;SDS011;63121;51.458;-0.110;2023-04-01T04:31:00;5.20;;;1.88;;
74614;SDS011;63121;51.458;-0.110;2023-04-01T04:33:26;6.63;;;1.60;;
74614;SDS011;63121;51.458;-0.110;2023-04-01T04:35:54;5.65;;;1.70;;
74614;SDS011;63121;51.458;-0.110;2023-04-01T04:38:20;6.50;;;1.80;;
74614;SDS011;63121;51.458;-0.110;2023-04-01T04:40:46;4.38;;;1.48;;
74614;SDS011;63121;51.458;-0.110;2023-04-01T04:43:12;6.38;;;1.45;;
74614;SDS011;63121;51.458;-0.110;2023-04-01T04:45:39;5.32;;;1.70;;
74614;SDS011;63121;51.458;-0.110;2023-04-01T04:48:06;4.65;;;1.55;;
74614;SDS011;63121;51.458;-0.110;2023-04-01T04:50:33;5.13;;;1.55;;
74614;SDS011;63121;51.458;-0.110;2023-04-01T04:52:58;3.97;;;1.30;;
74614;SDS011;63121;51.458;-0.110;2023-04-01T04:55:23;3.53;;;1.33;;
74614;SDS011;63121;51.458;-0.110;2023-04-01T04:57:49;4.63;;;1.50;;
74614;SDS011;63121;51.458;-0.110;2023-04-01T05:00:14;4.97;;;1.50;;
74614;SDS011;63121;51.458;-0.110;2023-04-01T05:02:40;4.25;;;1.50;;
74614;SDS011;63121;51.458;-0.110;2023-04-01T05:05:05;3.47;;;1.20;;
74614;SDS011;63121;51.458;-0.110;2023-04-01T05:07:31;3.80;;;1.13;;
74614;SDS011;63121;51.458;-0.110;2023-04-01T05:09:57;5.65;;;1.50;;
74614;SDS011;63121;51.458;-0.110;2023-04-01T05:12:23;4.00;;;1.20;;
74614;SDS011;63121;51.458;-0.110;2023-04-01T05:14:48;4.38;;;1.40;;
74614;SDS011;63121;51.458;-0.110;2023-04-01T05:17:13;5.60;;;1.50;;
74614;SDS011;63121;51.458;-0.110;2023-04-01T05:19:39;3.75;;;1.35;;
74614;SDS011;63121;51.458;-0.110;2023-04-01T05:22:05;3.53;;;1.23;;
74614;SDS011;63121;51.458;-0.110;2023-04-01T05:24:31;3.67;;;1.17;;
74614;SDS011;63121;51.458;-0.110;2023-04-01T05:26:57;5.13;;;1.70;;
74614;SDS011;63121;51.458;-0.110;2023-04-01T05:29:23;3.15;;;1.20;;
74614;SDS011;63121;51.458;-0.110;2023-04-01T05:31:49;4.65;;;1.45;;
74614;SDS011;63121;51.458;-0.110;2023-04-01T05:34:15;4.20;;;1.58;;
74614;SDS011;63121;51.458;-0.110;2023-04-01T05:36:41;5.93;;;1.48;;
74614;SDS011;63121;51.458;-0.110;2023-04-01T05:39:08;4.78;;;1.70;;
74614;SDS011;63121;51.458;-0.110;2023-04-01T05:41:37;6.68;;;1.70;;
74614;SDS011;63121;51.458;-0.110;2023-04-01T05:44:03;3.95;;;1.30;;
74614;SDS011;63121;51.458;-0.110;2023-04-01T05:46:29;5.40;;;1.75;;
74614;SDS011;63121;51.458;-0.110;2023-04-01T05:48:55;5.20;;;1.48;;
74614;SDS011;63121;51.458;-0.110;2023-04-01T05:51:21;5.07;;;1.60;;
74614;SDS011;63121;51.458;-0.110;2023-04-01T05:53:46;4.95;;;1.63;;
74614;SDS011;63121;51.458;-0.110;2023-04-01T05:56:11;5.03;;;1.45;;
74614;SDS011;63121;51.458;-0.110;2023-04-01T05:58:37;6.45;;;1.92;;
74614;SDS011;63121;51.458;-0.110;2023-04-01T06:01:04;6.07;;;1.75;;
74614;SDS011;63121;51.458;-0.110;2023-04-01T06:03:33;5.63;;;1.80;;
74614;SDS011;63121;51.458;-0.110;2023-04-01T06:05:59;6.03;;;1.90;;
74614;SDS011;63121;51.458;-0.110;2023-04-01T06:08:26;7.47;;;2.22;;
74614;SDS011;63121;51.458;-0.110;2023-04-01T06:30:01;6.65;;;2.08;;
74614;SDS011;63121;51.458;-0.110;2023-04-01T06:38:34;8.30;;;2.35;;
74614;SDS011;63121;51.458;-0.110;2023-04-01T06:41:21;7.78;;;2.28;;
74614;SDS011;63121;51.458;-0.110;2023-04-01T06:46:44;7.50;;;2.00;;
74614;SDS011;63121;51.458;-0.110;2023-04-01T06:49:33;6.65;;;1.77;;
74614;SDS011;63121;51.458;-0.110;2023-04-01T06:55:17;6.88;;;2.40;;
74614;SDS011;63121;51.458;-0.110;2023-04-01T06:57:43;4.75;;;1.50;;
74614;SDS011;63121;51.458;-0.110;2023-04-01T07:00:26;6.90;;;1.80;;
74614;SDS011;63121;51.458;-0.110;2023-04-01T07:05:41;5.70;;;1.52;;
74614;SDS011;63121;51.458;-0.110;2023-04-01T07:08:11;5.72;;;1.90;;
74614;SDS011;63121;51.458;-0.110;2023-04-01T07:10:46;4.85;;;1.67;;
74614;SDS011;63121;51.458;-0.110;2023-04-01T07:13:19;5.60;;;2.20;;
74614;SDS011;63121;51.458;-0.110;2023-04-01T07:15:59;7.45;;;2.30;;
74614;SDS011;63121;51.458;-0.110;2023-04-01T07:18:37;6.78;;;2.05;;
74614;SDS011;63121;51.458;-0.110;2023-04-01T07:21:09;7.32;;;2.33;;
74614;SDS011;63121;51.458;-0.110;2023-04-01T07:23:47;7.68;;;2.00;;
74614;SDS011;63121;51.458;-0.110;2023-04-01T07:26:23;6.13;;;2.10;;
74614;SDS011;63121;51.458;-0.110;2023-04-01T07:28:50;4.35;;;1.77;;
74614;SDS011;63121;51.458;-0.110;2023-04-01T07:36:42;7.97;;;2.20;;
74614;SDS011;63121;51.458;-0.110;2023-04-01T07:53:31;8.32;;;2.20;;
74614;SDS011;63121;51.458;-0.110;2023-04-01T07:56:22;7.03;;;2.35;;
74614;SDS011;63121;51.458;-0.110;2023-04-01T08:06:32;8.00;;;2.50;;
74614;SDS011;63121;51.458;-0.110;2023-04-01T08:12:05;7.55;;;2.42;;
74614;SDS011;63121;51.458;-0.110;2023-04-01T08:14:56;7.25;;;2.22;;
74614;SDS011;63121;51.458;-0.110;2023-04-01T08:17:40;7.85;;;2.70;;
74614;SDS011;63121;51.458;-0.110;2023-04-01T08:26:28;9.63;;;3.45;;
74614;SDS011;63121;51.458;-0.110;2023-04-01T08:29:02;8.48;;;3.22;;
74614;SDS011;63121;51.458;-0.110;2023-04-01T08:34:03;10.13;;;2.95;;
74614;SDS011;63121;51.458;-0.110;2023-04-01T08:36:37;9.05;;;2.35;;
74614;SDS011;63121;51.458;-0.110;2023-04-01T08:39:48;8.32;;;2.53;;
74614;SDS011;63121;51.458;-0.110;2023-04-01T09:00:33;8.50;;;2.72;;
74614;SDS011;63121;51.458;-0.110;2023-04-01T09:03:37;7.18;;;2.78;;
74614;SDS011;63121;51.458;-0.110;2023-04-01T09:09:09;7.80;;;2.40;;
74614;SDS011;63121;51.458;-0.110;2023-04-01T09:28:33;8.25;;;3.00;;
74614;SDS011;63121;51.458;-0.110;2023-04-01T09:34:15;9.40;;;2.45;;
74614;SDS011;63121;51.458;-0.110;2023-04-01T09:39:35;8.25;;;2.33;;
74614;SDS011;63121;51.458;-0.110;2023-04-01T09:42:16;7.95;;;2.55;;
74614;SDS011;63121;51.458;-0.110;2023-04-01T09:45:05;6.75;;;2.15;;
74614;SDS011;63121;51.458;-0.110;2023-04-01T09:50:32;7.40;;;2.38;;
74614;SDS011;63121;51.458;-0.110;2023-04-01T10:09:46;7.45;;;1.88;;
74614;SDS011;63121;51.458;-0.110;2023-04-01T10:12:40;10.50;;;2.60;;
74614;SDS011;63121;51.458;-0.110;2023-04-01T10:21:37;10.88;;;2.88;;
74614;SDS011;63121;51.458;-0.110;2023-04-01T10:30:27;5.90;;;1.80;;
74614;SDS011;63121;51.458;-0.110;2023-04-01T11:12:03;9.65;;;2.58;;
74614;SDS011;63121;51.458;-0.110;2023-04-01T11:44:21;9.73;;;2.47;;
74614;SDS011;63121;51.458;-0.110;2023-04-01T11:46:52;6.70;;;2.25;;
74614;SDS011;63121;51.458;-0.110;2023-04-01T12:00:14;7.00;;;1.70;;
74614;SDS011;63121;51.458;-0.110;2023-04-01T12:05:37;7.80;;;2.00;;
74614;SDS011;63121;51.458;-0.110;2023-04-01T12:08:18;8.77;;;2.55;;
74614;SDS011;63121;51.458;-0.110;2023-04-01T12:11:12;7.47;;;2.75;;
74614;SDS011;63121;51.458;-0.110;2023-04-01T12:13:51;10.93;;;3.13;;
74614;SDS011;63121;51.458;-0.110;2023-04-01T12:21:58;8.30;;;1.88;;
74614;SDS011;63121;51.458;-0.110;2023-04-01T12:32:15;8.82;;;1.95;;
74614;SDS011;63121;51.458;-0.110;2023-04-01T13:16:26;5.55;;;1.50;;
74614;SDS011;63121;51.458;-0.110;2023-04-01T13:19:06;7.07;;;1.65;;
74614;SDS011;63121;51.458;-0.110;2023-04-01T13:43:50;3.17;;;1.13;;
74614;SDS011;63121;51.458;-0.110;2023-04-01T14:11:53;6.95;;;2.10;;
74614;SDS011;63121;51.458;-0.110;2023-04-01T14:25:17;6.00;;;1.65;;
74614;SDS011;63121;51.458;-0.110;2023-04-01T14:27:49;8.15;;;1.85;;
74614;SDS011;63121;51.458;-0.110;2023-04-01T14:30:23;7.45;;;2.05;;
74614;SDS011;63121;51.458;-0.110;2023-04-01T14:32:58;7.85;;;1.80;;
74614;SDS011;63121;51.458;-0.110;2023-04-01T14:35:37;6.85;;;1.67;;
74614;SDS011;63121;51.458;-0.110;2023-04-01T14:41:00;5.25;;;1.52;;
74614;SDS011;63121;51.458;-0.110;2023-04-01T14:48:49;5.35;;;1.85;;
74614;SDS011;63121;51.458;-0.110;2023-04-01T14:51:34;5.88;;;1.85;;
74614;SDS011;63121;51.458;-0.110;2023-04-01T14:57:30;8.57;;;2.28;;
74614;SDS011;63121;51.458;-0.110;2023-04-01T15:08:01;5.83;;;2.33;;
74614;SDS011;63121;51.458;-0.110;2023-04-01T15:18:56;6.43;;;1.92;;
74614;SDS011;63121;51.458;-0.110;2023-04-01T15:32:08;7.03;;;2.40;;
74614;SDS011;63121;51.458;-0.110;2023-04-01T15:43:03;8.57;;;2.95;;
74614;SDS011;63121;51.458;-0.110;2023-04-01T15:51:18;7.00;;;1.80;;
74614;SDS011;63121;51.458;-0.110;2023-04-01T16:01:18;7.47;;;2.08;;
74614;SDS011;63121;51.458;-0.110;2023-04-01T16:03:51;7.25;;;2.10;;
74614;SDS011;63121;51.458;-0.110;2023-04-01T16:12:15;7.88;;;2.00;;
74614;SDS011;63121;51.458;-0.110;2023-04-01T16:14:54;4.95;;;1.70;;
74614;SDS011;63121;51.458;-0.110;2023-04-01T16:17:24;6.32;;;2.00;;
74614;SDS011;63121;51.458;-0.110;2023-04-01T16:19:59;9.00;;;2.47;;
74614;SDS011;63121;51.458;-0.110;2023-04-01T16:22:39;10.48;;;2.83;;
74614;SDS011;63121;51.458;-0.110;2023-04-01T16:33:04;6.95;;;2.03;;
74614;SDS011;63121;51.458;-0.110;2023-04-01T16:36:13;6.53;;;1.60;;
74614;SDS011;63121;51.458;-0.110;2023-04-01T16:38:45;5.57;;;1.73;;
74614;SDS011;63121;51.458;-0.110;2023-04-01T16:41:27;6.65;;;1.70;;
74614;SDS011;63121;51.458;-0.110;2023-04-01T16:46:52;8.25;;;2.10;;
74614;SDS011;63121;51.458;-0.110;2023-04-01T16:57:26;5.43;;;1.90;;
74614;SDS011;63121;51.458;-0.110;2023-04-01T17:02:44;7.32;;;2.63;;
74614;SDS011;63121;51.458;-0.110;2023-04-01T17:05:16;8.13;;;2.45;;
74614;SDS011;63121;51.458;-0.110;2023-04-01T17:07:47;9.07;;;2.00;;
74614;SDS011;63121;51.458;-0.110;2023-04-01T17:18:09;5.80;;;1.67;;
74614;SDS011;63121;51.458;-0.110;2023-04-01T17:20:46;8.15;;;2.15;;
74614;SDS011;63121;51.458;-0.110;2023-04-01T17:23:29;7.28;;;1.70;;
74614;SDS011;63121;51.458;-0.110;2023-04-01T17:28:50;5.22;;;1.55;;
74614;SDS011;63121;51.458;-0.110;2023-04-01T17:33:58;5.00;;;1.87;;
74614;SDS011;63121;51.458;-0.110;2023-04-01T17:36:57;5.40;;;1.80;;
74614;SDS011;63121;51.458;-0.110;2023-04-01T17:39:37;7.15;;;1.92;;
74614;SDS011;63121;51.458;-0.110;2023-04-01T17:42:11;9.68;;;2.25;;
74614;SDS011;63121;51.458;-0.110;2023-04-01T17:56:13;8.55;;;2.78;;
74614;SDS011;63121;51.458;-0.110;2023-04-01T17:58:46;8.55;;;2.13;;
74614;SDS011;63121;51.458;-0.110;2023-04-01T18:14:48;7.25;;;2.00;;
74614;SDS011;63121;51.458;-0.110;2023-04-01T18:17:32;7.45;;;1.92;;
74614;SDS011;63121;51.458;-0.110;2023-04-01T18:20:22;4.20;;;1.65;;
74614;SDS011;63121;51.458;-0.110;2023-04-01T18:23:35;7.65;;;2.28;;
74614;SDS011;63121;51.458;-0.110;2023-04-01T18:25:52;5.32;;;1.80;;
74614;SDS011;63121;51.458;-0.110;2023-04-01T18:28:39;6.20;;;2.42;;
74614;SDS011;63121;51.458;-0.110;2023-04-01T18:31:16;5.65;;;1.85;;
74614;SDS011;63121;51.458;-0.110;2023-04-01T18:39:14;5.28;;;1.75;;
74614;SDS011;63121;51.458;-0.110;2023-04-01T18:44:28;7.82;;;1.90;;
74614;SDS011;63121;51.458;-0.110;2023-04-01T18:57:26;5.67;;;1.80;;
74614;SDS011;63121;51.458;-0.110;2023-04-01T19:00:32;7.28;;;2.25;;
74614;SDS011;63121;51.458;-0.110;2023-04-01T19:03:10;7.97;;;2.30;;
74614;SDS011;63121;51.458;-0.110;2023-04-01T19:05:45;5.00;;;1.70;;
74614;SDS011;63121;51.458;-0.110;2023-04-01T19:08:14;7.65;;;2.28;;
74614;SDS011;63121;51.458;-0.110;2023-04-01T19:13:40;5.97;;;1.80;;
74614;SDS011;63121;51.458;-0.110;2023-04-01T19:16:28;4.57;;;1.50;;
74614;SDS011;63121;51.458;-0.110;2023-04-01T19:21:40;7.45;;;2.17;;
74614;SDS011;63121;51.458;-0.110;2023-04-01T19:27:31;3.58;;;1.38;;
74614;SDS011;63121;51.458;-0.110;2023-04-01T19:51:07;4.15;;;1.50;;
74614;SDS011;63121;51.458;-0.110;2023-04-01T19:53:41;6.13;;;1.60;;
74614;SDS011;63121;51.458;-0.110;2023-04-01T19:56:19;3.78;;;1.20;;
74614;SDS011;63121;51.458;-0.110;2023-04-01T19:59:02;3.92;;;1.40;;
74614;SDS011;63121;51.458;-0.110;2023-04-01T20:01:41;5.18;;;1.42;;
74614;SDS011;63121;51.458;-0.110;2023-04-01T20:04:17;3.80;;;1.30;;
74614;SDS011;63121;51.458;-0.110;2023-04-01T20:14:42;6.15;;;1.35;;
74614;SDS011;63121;51.458;-0.110;2023-04-01T20:20:28;4.45;;;1.30;;
74614;SDS011;63121;51.458;-0.110;2023-04-01T20:28:01;3.28;;;1.30;;
74614;SDS011;63121;51.458;-0.110;2023-04-01T20:35:48;5.45;;;1.20;;
74614;SDS011;63121;51.458;-0.110;2023-04-01T20:38:41;3.38;;;1.02;;
74614;SDS011;63121;51.458;-0.110;2023-04-01T20:44:11;5.20;;;1.20;;
74614;SDS011;63121;51.458;-0.110;2023-04-01T20:57:23;3.10;;;1.15;;
74614;SDS011;63121;51.458;-0.110;2023-04-01T21:05:47;4.32;;;1.23;;
74614;SDS011;63121;51.458;-0.110;2023-04-01T21:46:52;3.33;;;1.02;;
74614;SDS011;63121;51.458;-0.110;2023-04-01T21:51:56;3.75;;;1.20;;
74614;SDS011;63121;51.458;-0.110;2023-04-01T22:00:09;3.92;;;1.38;;
74614;SDS011;63121;51.458;-0.110;2023-04-01T22:10:38;6.03;;;1.25;;
74614;SDS011;63121;51.458;-0.110;2023-04-01T22:13:18;4.68;;;1.25;;
74614;SDS011;63121;51.458;-0.110;2023-04-01T22:24:00;3.90;;;1.30;;
74614;SDS011;63121;51.458;-0.110;2023-04-01T22:26:57;4.22;;;1.42;;
74614;SDS011;63121;51.458;-0.110;2023-04-01T22:29:48;3.70;;;1.00;;
74614;SDS011;63121;51.458;-0.110;2023-04-01T22:34:57;2.50;;;1.10;;
74614;SDS011;63121;51.458;-0.110;2023-04-01T22:37:38;3.53;;;1.00;;
74614;SDS011;63121;51.458;-0.110;2023-04-01T22:40:28;7.32;;;1.40;;
74614;SDS011;63121;51.458;-0.110;2023-04-01T22:43:21;3.58;;;1.05;;
74614;SDS011;63121;51.458;-0.110;2023-04-01T22:48:54;5.97;;;1.20;;
74614;SDS011;63121;51.458;-0.110;2023-04-01T22:54:18;3.50;;;1.05;;
74614;SDS011;63121;51.458;-0.110;2023-04-01T22:56:51;2.38;;;1.00;;
74614;SDS011;63121;51.458;-0.110;2023-04-01T23:02:14;1.92;;;1.08;;
74614;SDS011;63121;51.458;-0.110;2023-04-01T23:04:45;2.30;;;0.93;;
74614;SDS011;63121;51.458;-0.110;2023-04-01T23:10:59;3.55;;;0.90;;
74614;SDS011;63121;51.458;-0.110;2023-04-01T23:13:02;3.35;;;1.00;;
74614;SDS011;63121;51.458;-0.110;2023-04-01T23:15:30;4.82;;;1.30;;
74614;SDS011;63121;51.458;-0.110;2023-04-01T23:20:33;3.42;;;1.20;;
74614;SDS011;63121;51.458;-0.110;2023-04-01T23:28:38;2.35;;;0.90;;
74614;SDS011;63121;51.458;-0.110;2023-04-01T23:33:56;3.25;;;1.10;;
74614;SDS011;63121;51.458;-0.110;2023-04-01T23:36:23;3.03;;;1.00;;
74614;SDS011;63121;51.458;-0.110;2023-04-01T23:38:49;4.57;;;1.02;;
74614;SDS011;63121;51.458;-0.110;2023-04-01T23:41:19;3.85;;;1.00;;
74614;SDS011;63121;51.458;-0.110;2023-04-01T23:43:51;3.17;;;0.80;;
74614;SDS011;63121;51.458;-0.110;2023-04-01T23:46:23;2.92;;;1.00;;
74614;SDS011;63121;51.458;-0.110;2023-04-01T23:48:50;1.60;;;0.77;;
74614;SDS011;63121;51.458;-0.110;2023-04-01T23:53:47;3.20;;;0.82;;
74614;SDS011;63121;51.458;-0.110;2023-04-01T23:56:20;2.50;;;1.02;;
74614;SDS011;63121;51.458;-0.110;2023-04-01T23:58:49;5.07;;;1.45;;
